createdAt,value
2023-09-29T00:02:54.246Z,52.50
2023-09-29T00:05:56.637Z,52.54
2023-09-29T00:08:59.481Z,52.34
2023-09-29T00:12:01.701Z,52.22
2023-09-29T00:15:07.647Z,52.33
2023-09-29T00:18:09.962Z,52.44
2023-09-29T00:21:12.483Z,52.40
2023-09-29T00:24:14.678Z,52.19
2023-09-29T00:27:29.702Z,52.26
2023-09-29T00:30:31.917Z,52.21
2023-09-29T00:33:34.647Z,52.19
2023-09-29T00:36:37.004Z,51.98
2023-09-29T00:39:39.210Z,52.23
2023-09-29T00:42:42.979Z,52.27
2023-09-29T00:45:46.309Z,52.54
2023-09-29T00:48:50.460Z,52.28
2023-09-29T00:51:53.268Z,52.30
2023-09-29T00:54:55.969Z,52.44
2023-09-29T00:57:59.780Z,52.07
2023-09-29T01:01:02.799Z,52.47
2023-09-29T01:04:05.953Z,52.07
2023-09-29T01:07:08.963Z,52.09
2023-09-29T01:10:20.263Z,52.33
2023-09-29T01:13:23.722Z,52.55
2023-09-29T01:16:26.134Z,52.38
2023-09-29T01:19:28.363Z,52.26
2023-09-29T01:22:31.435Z,52.34
2023-09-29T01:25:34.271Z,52.35
2023-09-29T01:28:36.535Z,52.59
2023-09-29T01:31:40.156Z,52.43
2023-09-29T01:34:42.356Z,52.50
2023-09-29T01:37:47.937Z,52.46
2023-09-29T01:40:50.135Z,52.44
2023-09-29T01:43:53.565Z,52.52
2023-09-29T01:46:57.120Z,52.81
2023-09-29T01:50:00.529Z,52.90
2023-09-29T01:53:03.338Z,53.32
2023-09-29T01:56:05.653Z,53.25
2023-09-29T01:59:07.908Z,53.06
2023-09-29T02:02:10.186Z,53.23
2023-09-29T02:05:13.137Z,53.01
2023-09-29T02:08:15.876Z,53.00
2023-09-29T02:11:18.785Z,53.66
2023-09-29T02:14:21.677Z,53.92
2023-09-29T02:17:24.180Z,53.76
2023-09-29T02:20:34.853Z,53.98
2023-09-29T02:23:39.397Z,54.01
2023-09-29T02:26:42.785Z,53.68
2023-09-29T02:29:45.107Z,54.01
2023-09-29T02:32:47.629Z,53.67
2023-09-29T02:35:51.623Z,53.89
2023-09-29T02:38:54.237Z,53.71
2023-09-29T02:41:57.646Z,54.08
2023-09-29T02:44:59.913Z,54.02
2023-09-29T02:48:03.599Z,53.82
2023-09-29T02:51:15.359Z,53.94
2023-09-29T02:54:17.536Z,54.05
2023-09-29T02:57:22.137Z,54.21
2023-09-29T03:00:28.020Z,54.28
2023-09-29T03:03:30.530Z,54.26
2023-09-29T03:06:33.419Z,53.88
2023-09-29T03:09:35.624Z,53.67
2023-09-29T03:12:37.788Z,53.57
2023-09-29T03:15:42.777Z,54.17
2023-09-29T03:18:45.069Z,53.98
2023-09-29T03:21:47.359Z,53.93
2023-09-29T03:24:49.593Z,54.14
2023-09-29T03:27:51.845Z,54.24
2023-09-29T03:30:54.165Z,54.29
2023-09-29T03:33:56.432Z,54.72
2023-09-29T03:36:58.679Z,54.50
2023-09-29T03:40:00.881Z,54.58
2023-09-29T03:43:03.052Z,54.63
2023-09-29T03:46:05.738Z,54.74
2023-09-29T03:49:08.500Z,54.76
2023-09-29T03:52:10.729Z,54.90
2023-09-29T03:55:14.246Z,54.55
2023-09-29T03:58:16.567Z,55.14
2023-09-29T04:01:18.994Z,54.82
2023-09-29T04:04:21.321Z,54.82
2023-09-29T04:07:23.557Z,54.78
2023-09-29T04:10:25.903Z,54.41
2023-09-29T04:13:28.163Z,54.47
2023-09-29T04:16:33.514Z,54.43
2023-09-29T04:19:36.584Z,54.30
2023-09-29T04:22:39.092Z,54.58
2023-09-29T04:25:41.292Z,54.12
2023-09-29T04:28:43.536Z,54.51
2023-09-29T04:31:45.737Z,54.04
2023-09-29T04:34:47.921Z,54.14
2023-09-29T04:37:51.304Z,54.17
2023-09-29T04:40:53.560Z,54.07
2023-09-29T04:43:55.781Z,54.40
2023-09-29T04:46:58.039Z,53.96
2023-09-29T04:50:00.237Z,53.65
2023-09-29T04:53:02.489Z,53.69
2023-09-29T04:56:04.760Z,53.42
2023-09-29T04:59:07.683Z,53.74
2023-09-29T05:02:09.963Z,53.83
2023-09-29T05:05:12.195Z,53.85
2023-09-29T05:08:16.037Z,53.33
2023-09-29T05:11:22.479Z,53.20
2023-09-29T05:14:25.897Z,52.78
2023-09-29T05:17:44.423Z,52.87
2023-09-29T05:20:51.747Z,52.98
2023-09-29T05:23:54.578Z,52.94
2023-09-29T05:26:57.132Z,52.98
2023-09-29T05:30:00.076Z,53.15
2023-09-29T05:33:02.363Z,52.88
2023-09-29T05:36:05.090Z,52.74
2023-09-29T05:39:07.332Z,52.69
2023-09-29T05:42:13.806Z,52.98
2023-09-29T05:45:16.157Z,52.56
2023-09-29T05:48:18.656Z,52.54
2023-09-29T05:51:21.082Z,52.57
2023-09-29T05:54:23.764Z,52.63
2023-09-29T05:57:26.360Z,52.28
2023-09-29T06:00:29.804Z,52.25
2023-09-29T06:03:32.235Z,52.21
2023-09-29T06:06:35.377Z,52.31
2023-09-29T06:09:37.831Z,52.55
2023-09-29T06:12:41.922Z,52.41
2023-09-29T06:15:46.601Z,52.14
2023-09-29T06:22:16.053Z,51.58
2023-09-29T06:25:18.484Z,51.52
2023-09-29T06:28:21.252Z,51.37
2023-09-29T06:31:25.212Z,51.91
2023-09-29T06:34:27.470Z,51.75
2023-09-29T06:37:30.185Z,51.59
2023-09-29T06:40:32.458Z,51.47
2023-09-29T06:43:35.142Z,51.70
2023-09-29T06:46:38.936Z,51.57
2023-09-29T06:49:43.711Z,51.30
2023-09-29T06:52:46.285Z,50.96
2023-09-29T06:55:52.687Z,51.12
2023-09-29T06:58:56.844Z,50.96
2023-09-29T07:01:59.527Z,50.71
2023-09-29T07:05:04.637Z,50.82
2023-09-29T07:08:09.487Z,50.45
2023-09-29T07:11:23.536Z,50.39
2023-09-29T07:14:32.288Z,49.69
2023-09-29T07:17:36.560Z,49.77
2023-09-29T07:20:39.223Z,49.37
2023-09-29T07:23:42.104Z,49.46
2023-09-29T07:26:44.477Z,49.13
2023-09-29T07:29:50.986Z,49.15
2023-09-29T07:32:54.444Z,48.68
2023-09-29T07:35:58.314Z,47.73
2023-09-29T07:39:09.162Z,47.77
2023-09-29T07:42:12.384Z,48.23
2023-09-29T07:45:14.971Z,47.79
2023-09-29T07:48:25.203Z,48.03
2023-09-29T07:51:31.072Z,47.31
2023-09-29T07:54:35.933Z,47.53
2023-09-29T07:57:45.010Z,47.37
2023-09-29T08:00:55.935Z,47.32
2023-09-29T08:04:04.901Z,46.39
2023-09-29T08:07:26.048Z,46.16
2023-09-29T08:10:28.489Z,46.22
2023-09-29T08:13:31.069Z,46.10
2023-09-29T08:16:34.089Z,46.63
2023-09-29T08:19:37.013Z,46.21
2023-09-29T08:22:41.614Z,46.26
2023-09-29T08:25:45.491Z,46.14
2023-09-29T08:28:50.138Z,46.14
2023-09-29T08:31:55.350Z,45.86
2023-09-29T08:35:01.149Z,46.00
2023-09-29T08:38:04.077Z,45.65
2023-09-29T08:41:09.847Z,46.01
2023-09-29T08:44:16.098Z,45.60
2023-09-29T08:47:20.177Z,45.89
2023-09-29T08:50:36.799Z,45.97
2023-09-29T08:53:44.920Z,45.66
2023-09-29T08:57:19.145Z,45.17
2023-09-29T09:00:22.492Z,45.08
2023-09-29T09:03:38.931Z,43.84
2023-09-29T09:06:42.418Z,43.85
2023-09-29T09:10:02.837Z,43.48
2023-09-29T09:13:09.384Z,43.17
2023-09-29T09:16:13.026Z,42.95
2023-09-29T09:19:16.374Z,43.00
2023-09-29T09:22:38.952Z,42.80
2023-09-29T09:25:45.730Z,42.76
2023-09-29T09:28:47.957Z,42.68
2023-09-29T09:31:56.528Z,41.91
2023-09-29T09:34:59.537Z,42.68
2023-09-29T09:38:02.708Z,42.16
2023-09-29T09:41:06.579Z,42.39
2023-09-29T09:44:09.008Z,41.17
2023-09-29T09:47:15.473Z,40.89
2023-09-29T09:50:17.875Z,41.41
2023-09-29T09:53:22.164Z,40.62
2023-09-29T09:56:25.791Z,40.68
2023-09-29T09:59:29.263Z,40.99
2023-09-29T10:02:34.634Z,41.17
2023-09-29T10:05:41.327Z,40.55
2023-09-29T10:08:45.757Z,40.51
2023-09-29T10:12:00.788Z,40.05
2023-09-29T10:15:07.185Z,40.06
2023-09-29T10:18:20.918Z,40.35
2023-09-29T10:21:26.990Z,40.35
2023-09-29T10:24:30.119Z,40.47
2023-09-29T10:27:41.249Z,41.14
2023-09-29T10:30:43.462Z,40.63
2023-09-29T10:33:46.077Z,40.81
2023-09-29T10:36:56.003Z,40.79
2023-09-29T10:39:59.245Z,40.71
2023-09-29T10:43:03.866Z,40.75
2023-09-29T10:46:09.936Z,40.48
2023-09-29T10:49:32.340Z,40.51
2023-09-29T10:52:56.299Z,40.91
2023-09-29T10:56:10.311Z,40.58
2023-09-29T10:59:12.954Z,40.48
2023-09-29T11:02:15.490Z,40.62
2023-09-29T11:05:18.308Z,40.52
2023-09-29T11:08:26.272Z,40.73
2023-09-29T11:11:37.587Z,39.73
2023-09-29T11:14:41.205Z,39.96
2023-09-29T11:17:51.506Z,39.29
2023-09-29T11:20:54.401Z,39.99
2023-09-29T11:24:06.240Z,39.66
2023-09-29T11:27:08.635Z,39.43
2023-09-29T11:30:12.073Z,39.51
2023-09-29T11:33:16.257Z,39.74
2023-09-29T11:36:24.376Z,39.33
2023-09-29T11:39:26.646Z,39.29
2023-09-29T11:42:29.384Z,39.41
2023-09-29T11:45:31.737Z,38.39
2023-09-29T11:48:34.047Z,38.86
2023-09-29T11:51:36.419Z,37.95
2023-09-29T11:54:39.349Z,37.87
2023-09-29T11:57:41.982Z,38.59
2023-09-29T12:00:44.307Z,37.10
2023-09-29T12:03:46.881Z,36.63
2023-09-29T12:06:49.244Z,36.45
2023-09-29T12:09:51.664Z,36.98
2023-09-29T12:12:53.824Z,35.75
2023-09-29T12:15:56.213Z,35.20
2023-09-29T12:18:58.509Z,36.36
2023-09-29T12:22:00.754Z,35.91
2023-09-29T12:25:02.938Z,36.17
2023-09-29T12:28:05.545Z,35.87
2023-09-29T12:31:16.020Z,35.97
2023-09-29T12:34:19.101Z,35.13
2023-09-29T12:37:21.347Z,35.21
2023-09-29T12:40:23.652Z,35.12
2023-09-29T12:43:25.797Z,34.17
2023-09-29T12:46:27.989Z,35.26
2023-09-29T12:49:30.429Z,34.89
2023-09-29T12:52:32.850Z,34.10
2023-09-29T12:55:35.166Z,34.22
2023-09-29T12:58:37.331Z,33.83
2023-09-29T13:01:39.810Z,33.52
2023-09-29T13:04:43.127Z,33.84
2023-09-29T13:07:50.520Z,33.92
2023-09-29T13:10:52.777Z,33.30
2023-09-29T13:13:55.741Z,33.66
2023-09-29T13:16:59.059Z,32.57
2023-09-29T13:20:01.287Z,31.93
2023-09-29T13:23:03.526Z,32.50
2023-09-29T13:26:06.550Z,32.20
2023-09-29T13:29:09.783Z,32.20
2023-09-29T13:32:12.952Z,31.69
2023-09-29T13:35:15.201Z,31.62
2023-09-29T13:38:18.851Z,31.98
2023-09-29T13:41:21.809Z,33.23
2023-09-29T13:44:23.961Z,31.78
2023-09-29T13:47:26.308Z,30.84
2023-09-29T13:50:30.341Z,32.68
2023-09-29T13:53:32.535Z,31.55
2023-09-29T13:56:35.052Z,32.26
2023-09-29T13:59:37.505Z,31.85
2023-09-29T14:02:39.751Z,31.21
2023-09-29T14:05:42.745Z,31.79
2023-09-29T14:08:45.529Z,31.39
2023-09-29T14:11:47.873Z,30.64
2023-09-29T14:14:50.173Z,31.86
2023-09-29T14:17:52.561Z,31.74
2023-09-29T14:20:54.808Z,32.06
2023-09-29T14:23:57.274Z,31.61
2023-09-29T14:26:59.968Z,30.54
2023-09-29T14:30:04.832Z,30.09
2023-09-29T14:33:07.258Z,31.12
2023-09-29T14:36:09.615Z,31.13
2023-09-29T14:39:12.202Z,31.11
2023-09-29T14:42:14.609Z,31.86
2023-09-29T14:45:16.978Z,31.10
2023-09-29T14:48:20.791Z,31.27
2023-09-29T14:51:23.437Z,31.65
2023-09-29T14:54:26.151Z,31.34
2023-09-29T14:57:28.395Z,31.18
2023-09-29T15:00:30.656Z,32.24
2023-09-29T15:03:33.321Z,32.23
2023-09-29T15:06:35.765Z,31.55
2023-09-29T15:09:38.190Z,31.27
2023-09-29T15:12:40.382Z,31.74
2023-09-29T15:15:42.992Z,31.74
2023-09-29T15:18:50.676Z,31.48
2023-09-29T15:21:53.071Z,31.49
2023-09-29T15:24:55.426Z,31.76
2023-09-29T15:27:57.709Z,31.43
2023-09-29T15:31:00.957Z,31.65
2023-09-29T15:34:03.681Z,31.68
2023-09-29T15:37:06.498Z,31.95
2023-09-29T15:40:12.318Z,32.50
2023-09-29T15:43:14.520Z,32.34
2023-09-29T15:46:17.850Z,32.38
2023-09-29T15:49:20.375Z,32.39
2023-09-29T15:52:23.232Z,32.50
2023-09-29T15:55:25.367Z,31.76
2023-09-29T15:58:27.578Z,32.30
2023-09-29T16:01:30.219Z,32.94
2023-09-29T16:04:32.685Z,32.62
2023-09-29T16:07:35.008Z,32.08
2023-09-29T16:10:37.177Z,31.93
2023-09-29T16:13:39.501Z,31.43
2023-09-29T16:16:46.036Z,31.60
2023-09-29T16:19:48.701Z,32.02
2023-09-29T16:22:51.996Z,32.52
2023-09-29T16:25:54.232Z,32.84
2023-09-29T16:28:56.537Z,33.54
2023-09-29T16:31:59.331Z,33.50
2023-09-29T16:35:02.237Z,34.32
2023-09-29T16:38:05.161Z,35.23
2023-09-29T16:41:07.401Z,35.58
2023-09-29T16:44:10.850Z,36.42
2023-09-29T16:47:13.285Z,37.47
2023-09-29T16:50:16.564Z,37.91
2023-09-29T16:53:19.045Z,38.14
2023-09-29T16:56:26.316Z,38.10
2023-09-29T16:59:28.481Z,38.23
2023-09-29T17:02:30.796Z,38.31
2023-09-29T17:05:34.882Z,38.46
2023-09-29T17:08:37.701Z,38.99
2023-09-29T17:11:45.210Z,39.49
2023-09-29T17:14:47.454Z,39.25
2023-09-29T17:17:49.688Z,40.45
2023-09-29T17:20:53.245Z,39.97
2023-09-29T17:23:56.086Z,40.69
2023-09-29T17:26:58.610Z,41.66
2023-09-29T17:30:01.058Z,41.47
2023-09-29T17:33:03.466Z,41.21
2023-09-29T17:36:07.072Z,41.61
2023-09-29T17:39:09.318Z,41.69
2023-09-29T17:42:12.590Z,42.10
2023-09-29T17:45:15.087Z,42.90
2023-09-29T17:48:34.406Z,42.91
2023-09-29T17:51:39.990Z,43.60
2023-09-29T17:54:42.228Z,44.02
2023-09-29T17:57:44.438Z,44.66
2023-09-29T18:00:46.617Z,45.08
2023-09-29T18:03:49.068Z,44.78
2023-09-29T18:06:57.349Z,45.25
2023-09-29T18:09:59.889Z,45.47
2023-09-29T18:13:02.487Z,45.56
2023-09-29T18:16:06.822Z,45.32
2023-09-29T18:19:09.077Z,45.83
2023-09-29T18:22:11.287Z,45.75
2023-09-29T18:25:13.550Z,46.15
2023-09-29T18:28:15.926Z,46.52
2023-09-29T18:31:18.174Z,46.82
2023-09-29T18:34:20.415Z,46.77
2023-09-29T18:37:24.390Z,46.66
2023-09-29T18:40:28.103Z,46.99
2023-09-29T18:43:30.329Z,47.02
2023-09-29T18:46:32.533Z,47.04
2023-09-29T18:49:34.829Z,47.20
2023-09-29T18:52:37.021Z,47.22
2023-09-29T18:55:42.085Z,47.31
2023-09-29T18:58:44.370Z,47.46
2023-09-29T19:01:46.827Z,47.46
2023-09-29T19:04:50.777Z,47.48
2023-09-29T19:07:53.033Z,47.74
2023-09-29T19:10:56.277Z,48.06
2023-09-29T19:13:58.590Z,48.27
2023-09-29T19:17:03.427Z,48.16
2023-09-29T19:20:06.458Z,48.50
2023-09-29T19:23:08.661Z,48.67
2023-09-29T19:26:14.931Z,48.96
2023-09-29T19:29:17.090Z,48.70
2023-09-29T19:32:19.304Z,48.87
2023-09-29T19:35:21.487Z,49.14
2023-09-29T19:38:23.678Z,48.97
2023-09-29T19:41:28.563Z,48.91
2023-09-29T19:44:30.911Z,48.97
2023-09-29T19:47:33.135Z,49.28
2023-09-29T19:50:35.302Z,49.25
2023-09-29T19:53:38.052Z,49.76
2023-09-29T19:56:40.305Z,49.50
2023-09-29T19:59:42.558Z,49.61
2023-09-29T20:02:45.004Z,49.65
2023-09-29T20:05:48.731Z,49.69
2023-09-29T20:08:51.656Z,49.82
2023-09-29T20:11:54.311Z,50.07
2023-09-29T20:14:56.658Z,50.15
2023-09-29T20:17:58.917Z,50.26
2023-09-29T20:21:02.903Z,50.17
2023-09-29T20:24:14.461Z,50.59
2023-09-29T20:27:17.367Z,50.22
2023-09-29T20:30:20.904Z,50.46
2023-09-29T20:33:23.411Z,50.50
2023-09-29T20:36:29.158Z,50.70
2023-09-29T20:39:33.033Z,50.54
2023-09-29T20:42:35.747Z,50.68
2023-09-29T20:45:38.043Z,50.77
2023-09-29T20:48:40.529Z,50.55
2023-09-29T20:51:42.767Z,50.73
2023-09-29T20:54:45.493Z,50.58
2023-09-29T20:57:47.704Z,50.40
2023-09-29T21:00:49.904Z,50.50
2023-09-29T21:03:52.245Z,50.53
2023-09-29T21:06:54.574Z,50.29
2023-09-29T21:09:57.019Z,50.51
2023-09-29T21:12:59.239Z,50.39
2023-09-29T21:16:01.770Z,50.54
2023-09-29T21:19:05.374Z,50.72
2023-09-29T21:22:07.868Z,50.73
2023-09-29T21:25:11.893Z,50.83
2023-09-29T21:28:14.268Z,50.78
2023-09-29T21:31:16.787Z,50.70
2023-09-29T21:34:19.638Z,50.71
2023-09-29T21:37:21.788Z,50.65
2023-09-29T21:40:23.940Z,50.76
2023-09-29T21:43:26.110Z,50.64
2023-09-29T21:46:28.370Z,50.84
2023-09-29T21:49:30.868Z,50.89
2023-09-29T21:52:33.115Z,50.74
2023-09-29T21:55:36.999Z,50.81
2023-09-29T21:58:39.255Z,50.94
2023-09-29T22:01:42.183Z,50.78
2023-09-29T22:04:44.518Z,50.67
2023-09-29T22:07:47.292Z,50.73
2023-09-29T22:10:50.628Z,50.77
2023-09-29T22:13:53.040Z,50.93
2023-09-29T22:16:55.228Z,51.06
2023-09-29T22:19:57.536Z,50.85
2023-09-29T22:23:00.098Z,50.94
2023-09-29T22:26:02.318Z,50.94
2023-09-29T22:29:04.726Z,51.11
2023-09-29T22:32:06.981Z,51.17
2023-09-29T22:35:09.908Z,51.21
2023-09-29T22:38:12.088Z,51.13
2023-09-29T22:41:16.308Z,51.39
2023-09-29T22:44:18.640Z,51.28
2023-09-29T22:47:20.894Z,51.38
2023-09-29T22:50:23.248Z,51.50
2023-09-29T22:53:28.548Z,50.97
2023-09-29T22:56:30.885Z,51.16
2023-09-29T22:59:33.536Z,51.21
2023-09-29T23:02:36.267Z,51.22
2023-09-29T23:05:38.614Z,51.00
2023-09-29T23:08:40.888Z,50.99
2023-09-29T23:11:43.189Z,50.67
2023-09-29T23:14:46.221Z,51.11
2023-09-29T23:17:48.503Z,51.10
2023-09-29T23:20:52.049Z,51.06
2023-09-29T23:23:54.877Z,51.10
2023-09-29T23:26:57.101Z,51.14
2023-09-29T23:29:59.351Z,51.05
2023-09-29T23:33:01.641Z,50.91
2023-09-29T23:36:07.717Z,50.82
2023-09-29T23:39:12.500Z,51.31
2023-09-29T23:42:15.093Z,51.10
2023-09-29T23:45:17.421Z,51.24
2023-09-29T23:48:19.760Z,51.51
2023-09-29T23:51:22.041Z,51.43
2023-09-29T23:54:26.412Z,51.46
2023-09-29T23:57:28.643Z,51.71
